Time;durP1;ratioP1;P1;durP2;ratioP2;P2;SDS_P1;SDS_P2;PMS_P1;PMS_P2;Temp;Humidity;BMP_temperature;BMP_pressure;BME280_temperature;BME280_humidity;BME280_pressure;Samples;Min_cycle;Max_cycle;Signal;HPM_P1;HPM_P2
2022/10/08 00:00:44;;;;;;;0.25;0.25;;;13.60;99.90;;;;;;5031288;28;20182;-61
2022/10/08 00:03:11;;;;;;;0.20;0.20;;;13.60;99.90;;;;;;5031123;28;20186;-61
2022/10/08 00:05:37;;;;;;;0.00;0.00;;;13.60;99.90;;;;;;5031402;28;20228;-60
2022/10/08 00:08:03;;;;;;;0.00;0.00;;;13.60;99.90;;;;;;5031091;28;20217;-60
2022/10/08 00:10:29;;;;;;;0.10;0.10;;;13.50;99.90;;;;;;5031691;28;20184;-60
2022/10/08 00:12:54;;;;;;;0.00;0.00;;;13.50;99.90;;;;;;5031423;28;20218;-60
2022/10/08 00:15:20;;;;;;;0.00;0.00;;;13.50;99.90;;;;;;5031233;28;20205;-60
2022/10/08 00:17:45;;;;;;;0.00;0.00;;;13.50;99.90;;;;;;5031364;28;20182;-60
2022/10/08 00:20:11;;;;;;;0.00;0.00;;;13.50;99.90;;;;;;5031361;28;20196;-60
2022/10/08 00:22:36;;;;;;;0.00;0.00;;;13.50;99.90;;;;;;5031188;28;20174;-60
2022/10/08 00:25:02;;;;;;;0.20;0.20;;;13.50;99.90;;;;;;5030836;28;20567;-60
2022/10/08 00:27:28;;;;;;;0.15;0.10;;;13.50;99.90;;;;;;5030990;28;20214;-60
2022/10/08 00:29:54;;;;;;;0.10;0.10;;;13.50;99.90;;;;;;5031554;28;20536;-60
2022/10/08 00:32:20;;;;;;;0.20;0.20;;;13.50;99.90;;;;;;5030990;28;20247;-61
2022/10/08 00:34:46;;;;;;;0.10;0.10;;;13.50;99.90;;;;;;5033301;28;20209;-60
2022/10/08 00:37:14;;;;;;;0.15;0.15;;;13.50;99.90;;;;;;5035548;28;20188;-60
2022/10/08 00:39:40;;;;;;;0.10;0.10;;;13.50;99.90;;;;;;5035608;28;20524;-60
2022/10/08 00:42:05;;;;;;;1.35;0.43;;;13.50;99.90;;;;;;5034999;28;20186;-61
2022/10/08 00:44:46;;;;;;;0.00;0.00;;;13.50;99.90;;;;;;5034910;28;20542;-60
2022/10/08 00:47:34;;;;;;;1.08;1.05;;;13.50;99.90;;;;;;5035133;28;20221;-60
2022/10/08 00:50:09;;;;;;;0.00;0.00;;;13.50;99.90;;;;;;5035441;28;20533;-60
2022/10/08 00:52:44;;;;;;;0.00;0.00;;;13.50;99.90;;;;;;5034664;28;20260;-60
2022/10/08 00:55:12;;;;;;;0.30;0.30;;;13.50;99.90;;;;;;5034358;28;20264;-61
2022/10/08 00:57:39;;;;;;;0.10;0.10;;;13.50;99.90;;;;;;5035038;28;20174;-60
2022/10/08 01:00:09;;;;;;;0.10;0.10;;;13.50;99.90;;;;;;5034811;28;20660;-60
2022/10/08 01:02:35;;;;;;;0.00;0.00;;;13.50;99.90;;;;;;5034278;28;20174;-60
2022/10/08 01:05:03;;;;;;;0.10;0.10;;;13.50;99.90;;;;;;5034886;28;20708;-60
2022/10/08 01:07:50;;;;;;;0.00;0.00;;;13.40;99.90;;;;;;5034548;28;20518;-60
2022/10/08 01:10:37;;;;;;;0.10;0.10;;;13.40;99.90;;;;;;5022897;28;20552;-61
2022/10/08 01:13:26;;;;;;;0.10;0.10;;;13.40;99.90;;;;;;5030121;28;20198;-61
2022/10/08 01:16:21;;;;;;;0.08;0.08;;;13.40;99.90;;;;;;5034803;28;20204;-60
2022/10/08 01:19:08;;;;;;;0.25;0.25;;;13.40;99.90;;;;;;5027582;28;20193;-61
2022/10/08 01:21:58;;;;;;;0.00;0.00;;;13.30;99.90;;;;;;5034116;28;20213;-60
2022/10/08 01:27:44;;;;;;;0.08;0.08;;;13.40;99.90;;;;;;5034007;28;20357;-61
2022/10/08 01:30:13;;;;;;;0.00;0.00;;;13.40;99.90;;;;;;5033924;28;20174;-60
2022/10/08 01:33:11;;;;;;;0.00;0.00;;;13.30;99.90;;;;;;5029227;28;20657;-60
2022/10/08 01:35:43;;;;;;;0.10;0.10;;;13.30;99.90;;;;;;5032525;28;20545;-60
2022/10/08 01:38:13;;;;;;;0.08;0.08;;;13.30;99.90;;;;;;5034315;28;20260;-60
2022/10/08 01:40:43;;;;;;;0.10;0.10;;;13.30;99.90;;;;;;5034071;28;20175;-60
2022/10/08 01:43:12;;;;;;;0.15;0.15;;;13.30;99.90;;;;;;5034015;28;20587;-60
2022/10/08 01:45:44;;;;;;;0.10;0.10;;;13.30;99.90;;;;;;5031910;28;20181;-60
2022/10/08 01:48:14;;;;;;;0.10;0.10;;;13.30;99.90;;;;;;5033817;28;20209;-60
2022/10/08 01:51:07;;;;;;;0.10;0.10;;;13.30;99.90;;;;;;5033910;28;20182;-60
2022/10/08 01:53:38;;;;;;;0.00;0.00;;;13.30;99.90;;;;;;5033843;28;20186;-61
2022/10/08 01:56:05;;;;;;;0.00;0.00;;;13.40;99.90;;;;;;5033538;28;20220;-61
2022/10/08 01:58:56;;;;;;;0.45;0.45;;;13.40;99.90;;;;;;5033647;28;20174;-60
2022/10/08 02:01:31;;;;;;;0.95;0.95;;;13.40;99.90;;;;;;5020404;28;20186;-60
2022/10/08 02:06:46;;;;;;;0.10;0.10;;;13.30;99.90;;;;;;5033817;28;20224;-60
2022/10/08 02:09:12;;;;;;;1.08;0.85;;;13.30;99.90;;;;;;5033415;28;20190;-60
2022/10/08 02:11:37;;;;;;;0.30;0.30;;;13.30;99.90;;;;;;5033525;28;20182;-60
2022/10/08 02:14:05;;;;;;;0.55;0.55;;;13.30;99.90;;;;;;5033420;28;20228;-60
2022/10/08 02:16:34;;;;;;;0.10;0.10;;;13.30;99.90;;;;;;5033310;28;20193;-60
2022/10/08 02:19:11;;;;;;;0.82;0.82;;;13.30;99.90;;;;;;5033095;28;20748;-60
2022/10/08 02:21:39;;;;;;;0.10;0.10;;;13.30;99.90;;;;;;5033644;28;20585;-61
2022/10/08 02:24:18;;;;;;;0.00;0.00;;;13.30;99.90;;;;;;5033071;28;20189;-60
2022/10/08 02:26:48;;;;;;;0.32;0.32;;;13.30;99.90;;;;;;5033040;28;20217;-60
2022/10/08 02:29:31;;;;;;;0.20;0.20;;;13.30;99.90;;;;;;5033176;28;20669;-60
2022/10/08 02:32:21;;;;;;;0.20;0.20;;;13.40;99.90;;;;;;5033277;28;20683;-61
2022/10/08 02:34:54;;;;;;;0.08;0.08;;;13.40;99.90;;;;;;5032387;28;20175;-61
2022/10/08 02:37:31;;;;;;;0.20;0.20;;;13.40;99.90;;;;;;5032867;28;20328;-60
2022/10/08 02:40:01;;;;;;;0.13;0.13;;;13.50;99.90;;;;;;5033045;28;20174;-60
2022/10/08 02:42:29;;;;;;;0.00;0.00;;;13.50;99.90;;;;;;5033025;28;20600;-60
2022/10/08 02:45:11;;;;;;;0.57;0.20;;;13.60;99.90;;;;;;5032653;28;20541;-60
2022/10/08 02:47:40;;;;;;;0.10;0.10;;;13.60;99.90;;;;;;5032571;28;20213;-61
2022/10/08 02:50:11;;;;;;;0.10;0.10;;;13.60;99.90;;;;;;5033115;28;20174;-60
2022/10/08 02:52:41;;;;;;;0.20;0.20;;;13.60;99.90;;;;;;5032920;28;20181;-61
2022/10/08 02:55:19;;;;;;;0.25;0.25;;;13.70;99.90;;;;;;5032365;28;20258;-61
2022/10/08 02:57:53;;;;;;;0.08;0.08;;;13.70;99.90;;;;;;5031534;28;20204;-61
2022/10/08 03:00:19;;;;;;;0.00;0.00;;;13.70;99.90;;;;;;5032564;28;20267;-61
2022/10/08 03:03:06;;;;;;;0.00;0.00;;;13.80;99.90;;;;;;5032660;28;20218;-61
2022/10/08 03:05:32;;;;;;;0.10;0.10;;;13.80;99.90;;;;;;5015614;28;20364;-61
2022/10/08 03:07:58;;;;;;;0.30;0.30;;;13.80;99.90;;;;;;5032629;28;20216;-60
2022/10/08 03:10:24;;;;;;;0.00;0.00;;;13.90;99.90;;;;;;5032341;28;20182;-61
2022/10/08 03:12:52;;;;;;;0.00;0.00;;;13.90;99.90;;;;;;5032507;28;20264;-61
2022/10/08 03:15:18;;;;;;;0.00;0.00;;;13.90;99.90;;;;;;5032585;28;20179;-60
2022/10/08 03:17:46;;;;;;;0.10;0.10;;;13.90;99.90;;;;;;5032244;28;20186;-61
2022/10/08 03:20:12;;;;;;;0.00;0.00;;;14.00;99.90;;;;;;5031677;28;20675;-61
2022/10/08 03:22:38;;;;;;;0.08;0.05;;;14.00;99.90;;;;;;5032619;28;20179;-61
2022/10/08 03:25:04;;;;;;;0.25;0.20;;;14.00;99.90;;;;;;5031873;28;20265;-61
2022/10/08 03:27:30;;;;;;;0.20;0.20;;;14.00;99.90;;;;;;5032315;28;20232;-60
2022/10/08 03:29:56;;;;;;;0.03;0.03;;;14.00;99.90;;;;;;5032149;28;20170;-61
2022/10/08 03:32:23;;;;;;;0.00;0.00;;;14.00;99.90;;;;;;5031985;28;20658;-61
2022/10/08 03:34:48;;;;;;;0.82;0.35;;;14.10;99.90;;;;;;5031705;28;20178;-60
2022/10/08 03:37:14;;;;;;;0.43;0.20;;;14.10;99.90;;;;;;5032056;28;20212;-61
2022/10/08 03:39:39;;;;;;;0.75;0.45;;;14.10;99.90;;;;;;5032393;28;20178;-61
2022/10/08 03:42:05;;;;;;;0.00;0.00;;;14.10;99.90;;;;;;5031775;28;20178;-60
2022/10/08 03:44:30;;;;;;;0.00;0.00;;;14.20;99.90;;;;;;5031715;28;20185;-60
2022/10/08 03:46:56;;;;;;;0.00;0.00;;;14.20;99.90;;;;;;5032047;28;20264;-61
2022/10/08 03:49:21;;;;;;;0.13;0.13;;;14.20;99.90;;;;;;5031492;28;20188;-60
2022/10/08 03:51:47;;;;;;;0.10;0.10;;;14.20;99.90;;;;;;5031680;28;20184;-61
2022/10/08 03:54:12;;;;;;;0.35;0.22;;;14.20;99.90;;;;;;5031880;28;20178;-61
2022/10/08 03:56:38;;;;;;;0.03;0.03;;;14.20;99.90;;;;;;5031592;28;20196;-60
2022/10/08 03:59:03;;;;;;;0.60;0.60;;;14.20;99.90;;;;;;5031592;28;20656;-61
2022/10/08 04:01:29;;;;;;;0.00;0.00;;;14.30;99.90;;;;;;5031386;28;20176;-61
2022/10/08 04:03:54;;;;;;;0.15;0.13;;;14.30;99.90;;;;;;5031057;28;20193;-61
2022/10/08 04:06:20;;;;;;;0.15;0.15;;;14.30;99.90;;;;;;5031588;28;20684;-61
2022/10/08 04:08:46;;;;;;;0.10;0.10;;;14.30;99.90;;;;;;5031221;28;20617;-61
2022/10/08 04:11:13;;;;;;;0.25;0.10;;;14.30;99.90;;;;;;5030808;28;20294;-60
2022/10/08 04:13:39;;;;;;;0.10;0.10;;;14.30;99.90;;;;;;5032046;28;20544;-60
2022/10/08 04:16:16;;;;;;;0.00;0.00;;;14.20;99.90;;;;;;5031327;28;20262;-61
2022/10/08 04:18:42;;;;;;;0.00;0.00;;;14.30;99.90;;;;;;5031713;28;20528;-60
2022/10/08 04:21:11;;;;;;;0.13;0.13;;;14.30;99.90;;;;;;5031121;28;20264;-61
2022/10/08 04:23:38;;;;;;;1.20;0.13;;;14.20;99.90;;;;;;5031383;28;20178;-61
2022/10/08 04:26:05;;;;;;;0.00;0.00;;;14.30;99.90;;;;;;5030891;28;20269;-60
2022/10/08 04:28:31;;;;;;;0.22;0.22;;;14.20;99.90;;;;;;5031338;28;20185;-61
2022/10/08 04:30:58;;;;;;;0.15;0.15;;;14.30;99.90;;;;;;5031209;28;20264;-60
2022/10/08 04:33:24;;;;;;;0.15;0.10;;;14.30;99.90;;;;;;5031016;28;20178;-61
2022/10/08 04:35:49;;;;;;;0.43;0.43;;;14.20;99.90;;;;;;5030995;28;20182;-60
2022/10/08 04:38:15;;;;;;;0.00;0.00;;;14.20;99.90;;;;;;5030988;28;20181;-61
2022/10/08 04:40:40;;;;;;;0.52;0.52;;;14.20;99.90;;;;;;5031223;28;20214;-61
2022/10/08 04:43:06;;;;;;;1.75;1.55;;;14.10;99.90;;;;;;5030781;28;20189;-61
2022/10/08 04:45:32;;;;;;;0.03;0.03;;;14.10;99.90;;;;;;5031338;28;20272;-61
2022/10/08 04:47:57;;;;;;;0.13;0.13;;;14.10;99.90;;;;;;5030437;28;20245;-60
2022/10/08 04:50:23;;;;;;;0.00;0.00;;;14.10;99.90;;;;;;5031495;28;20174;-60
2022/10/08 04:52:48;;;;;;;0.00;0.00;;;14.10;99.90;;;;;;5030763;28;20181;-60
2022/10/08 04:55:14;;;;;;;0.63;0.17;;;14.10;99.90;;;;;;5035780;28;20178;-61
2022/10/08 04:57:40;;;;;;;0.25;0.25;;;14.10;99.90;;;;;;5032105;28;20259;-61
2022/10/08 05:00:06;;;;;;;0.10;0.10;;;14.10;99.90;;;;;;5031393;28;20245;-60
2022/10/08 05:02:32;;;;;;;0.00;0.00;;;14.10;99.90;;;;;;5030438;28;20182;-61
2022/10/08 05:04:57;;;;;;;0.15;0.15;;;14.10;99.90;;;;;;5030795;28;20218;-61
2022/10/08 05:07:23;;;;;;;0.10;0.08;;;14.00;99.90;;;;;;5031175;28;20253;-61
2022/10/08 05:09:49;;;;;;;0.00;0.00;;;14.00;99.90;;;;;;5031073;28;20192;-61
2022/10/08 05:12:14;;;;;;;0.10;0.10;;;14.00;99.90;;;;;;5031101;28;20687;-60
2022/10/08 05:14:40;;;;;;;0.08;0.08;;;14.00;99.90;;;;;;5011964;28;20175;-61
2022/10/08 05:17:06;;;;;;;0.03;0.03;;;14.00;99.90;;;;;;5028526;28;20619;-60
2022/10/08 05:19:31;;;;;;;0.30;0.30;;;14.00;99.90;;;;;;5024172;28;20221;-60
2022/10/08 05:21:57;;;;;;;0.28;0.28;;;13.90;99.90;;;;;;5034894;28;20178;-60
2022/10/08 05:24:22;;;;;;;0.05;0.05;;;13.90;99.90;;;;;;5029899;28;20209;-60
2022/10/08 05:26:50;;;;;;;0.00;0.00;;;13.90;99.90;;;;;;5034448;28;20210;-60
2022/10/08 05:29:17;;;;;;;0.70;0.43;;;13.90;99.90;;;;;;5034105;28;20227;-60
2022/10/08 05:31:43;;;;;;;0.00;0.00;;;13.90;99.90;;;;;;5034009;28;20677;-61
2022/10/08 05:34:11;;;;;;;0.10;0.10;;;13.90;99.90;;;;;;5034571;28;20539;-61
2022/10/08 05:36:37;;;;;;;0.30;0.20;;;13.90;99.90;;;;;;5034287;28;20645;-61
2022/10/08 05:39:04;;;;;;;0.38;0.38;;;13.90;99.90;;;;;;5034683;28;20277;-60
2022/10/08 05:41:32;;;;;;;0.20;0.20;;;13.90;99.90;;;;;;5034439;28;20264;-60
2022/10/08 05:44:00;;;;;;;0.00;0.00;;;13.90;99.90;;;;;;5035161;28;20178;-60
2022/10/08 05:46:27;;;;;;;0.00;0.00;;;13.90;99.90;;;;;;5033975;28;20218;-60
2022/10/08 05:48:58;;;;;;;0.10;0.10;;;13.90;99.90;;;;;;5034577;28;20193;-60
2022/10/08 05:51:24;;;;;;;0.13;0.13;;;13.80;99.90;;;;;;5034140;28;20186;-60
2022/10/08 05:53:51;;;;;;;0.20;0.20;;;13.80;99.90;;;;;;5033894;28;20194;-60
2022/10/08 05:56:20;;;;;;;0.90;0.32;;;13.80;99.90;;;;;;5033921;28;20713;-60
2022/10/08 05:58:46;;;;;;;0.00;0.00;;;13.80;99.90;;;;;;5033477;28;20649;-60
2022/10/08 06:01:13;;;;;;;0.17;0.17;;;13.80;99.90;;;;;;5033973;28;20174;-60
2022/10/08 06:03:39;;;;;;;0.00;0.00;;;13.80;99.90;;;;;;5033933;28;20186;-60
2022/10/08 06:06:07;;;;;;;0.10;0.10;;;13.80;99.90;;;;;;5033152;28;20222;-60
2022/10/08 06:08:34;;;;;;;0.17;0.17;;;13.90;99.90;;;;;;5033689;28;20178;-58
2022/10/08 06:11:00;;;;;;;0.00;0.00;;;13.90;99.90;;;;;;5033492;28;20175;-59
2022/10/08 06:13:26;;;;;;;0.17;0.10;;;14.00;99.90;;;;;;5033194;28;20239;-59
2022/10/08 06:16:03;;;;;;;0.22;0.22;;;13.90;99.90;;;;;;5034064;28;20174;-59
2022/10/08 06:18:32;;;;;;;0.00;0.00;;;14.00;99.90;;;;;;5033458;28;20189;-59
2022/10/08 06:21:08;;;;;;;0.50;0.50;;;14.00;99.90;;;;;;5033964;28;20170;-59
2022/10/08 06:23:34;;;;;;;0.00;0.00;;;14.10;99.90;;;;;;5033690;28;20197;-57
2022/10/08 06:26:01;;;;;;;0.13;0.13;;;14.20;99.90;;;;;;5033580;28;20308;-59
2022/10/08 06:28:27;;;;;;;0.00;0.00;;;14.20;99.90;;;;;;5033481;28;20190;-59
2022/10/08 06:30:53;;;;;;;0.43;0.43;;;14.30;99.90;;;;;;5033071;28;20189;-59
2022/10/08 06:33:18;;;;;;;0.05;0.05;;;14.30;99.90;;;;;;5033022;28;20174;-59
2022/10/08 06:35:44;;;;;;;1.02;0.55;;;14.40;99.90;;;;;;5033240;28;20260;-59
2022/10/08 06:38:09;;;;;;;0.00;0.00;;;14.50;99.90;;;;;;5033402;28;20171;-59
2022/10/08 06:40:39;;;;;;;0.05;0.05;;;14.60;99.90;;;;;;5033273;28;20660;-59
2022/10/08 06:43:06;;;;;;;0.35;0.35;;;14.80;99.90;;;;;;5033174;28;20650;-60
2022/10/08 06:45:36;;;;;;;0.00;0.00;;;15.10;99.90;;;;;;5033248;28;20173;-59
2022/10/08 06:48:01;;;;;;;0.10;0.05;;;15.30;99.90;;;;;;5032928;28;20304;-59
2022/10/08 06:50:27;;;;;;;0.10;0.10;;;15.50;99.90;;;;;;5032609;28;20174;-58
2022/10/08 06:52:53;;;;;;;0.00;0.00;;;15.60;99.90;;;;;;5032814;28;20767;-58
2022/10/08 06:55:18;;;;;;;0.77;0.73;;;15.60;99.90;;;;;;5032525;28;20182;-58
2022/10/08 06:57:44;;;;;;;0.00;0.00;;;15.50;99.90;;;;;;5032567;28;20182;-59
2022/10/08 07:00:10;;;;;;;0.00;0.00;;;15.50;99.90;;;;;;5032316;28;20204;-58
2022/10/08 07:02:35;;;;;;;0.30;0.30;;;15.40;99.90;;;;;;5032763;28;20190;-58
2022/10/08 07:05:01;;;;;;;0.00;0.00;;;15.30;99.90;;;;;;5032639;28;20312;-59
2022/10/08 07:07:26;;;;;;;0.10;0.10;;;15.30;99.90;;;;;;5030745;28;20210;-59
2022/10/08 07:09:52;;;;;;;0.28;0.28;;;15.30;99.90;;;;;;5032738;28;20178;-59
2022/10/08 07:12:17;;;;;;;0.25;0.25;;;15.30;99.90;;;;;;5032736;28;20189;-59
2022/10/08 07:14:43;;;;;;;0.00;0.00;;;15.30;99.90;;;;;;5032354;28;20538;-60
2022/10/08 07:17:08;;;;;;;0.30;0.30;;;15.30;99.90;;;;;;5032210;28;20575;-58
2022/10/08 07:19:34;;;;;;;0.47;0.08;;;15.30;99.90;;;;;;5031547;28;20518;-59
2022/10/08 07:21:59;;;;;;;0.00;0.00;;;15.30;99.90;;;;;;5032206;28;20193;-60
2022/10/08 07:24:24;;;;;;;0.00;0.00;;;15.40;99.90;;;;;;5032062;28;20178;-60
2022/10/08 07:26:50;;;;;;;0.28;0.28;;;15.60;99.90;;;;;;5031132;28;20388;-60
2022/10/08 07:29:16;;;;;;;0.20;0.20;;;15.90;99.90;;;;;;5031702;28;20186;-60
2022/10/08 07:31:41;;;;;;;0.00;0.00;;;16.10;99.90;;;;;;5032259;28;20381;-60
2022/10/08 07:34:10;;;;;;;0.00;0.00;;;16.30;99.90;;;;;;5032157;28;20526;-60
2022/10/08 07:36:37;;;;;;;0.00;0.00;;;16.30;99.90;;;;;;5032264;28;20185;-60
2022/10/08 07:39:10;;;;;;;0.00;0.00;;;16.40;99.90;;;;;;5032136;28;20186;-60
2022/10/08 07:41:36;;;;;;;0.55;0.55;;;16.50;99.90;;;;;;5032466;28;20228;-60
2022/10/08 07:44:03;;;;;;;0.00;0.00;;;16.70;99.90;;;;;;5030782;28;20189;-60
2022/10/08 07:46:31;;;;;;;0.00;0.00;;;16.80;99.90;;;;;;5032114;28;20213;-60
2022/10/08 07:49:00;;;;;;;0.00;0.00;;;16.80;99.90;;;;;;5030887;28;20633;-60
2022/10/08 07:51:28;;;;;;;0.00;0.00;;;16.90;99.90;;;;;;5031825;28;20186;-61
2022/10/08 07:53:54;;;;;;;0.15;0.05;;;17.00;99.90;;;;;;5032025;28;20174;-61
2022/10/08 07:56:21;;;;;;;0.03;0.03;;;17.00;99.90;;;;;;5031684;28;20217;-61
2022/10/08 07:58:47;;;;;;;0.00;0.00;;;17.10;99.90;;;;;;5031372;28;20182;-60
2022/10/08 08:01:15;;;;;;;0.00;0.00;;;17.30;99.90;;;;;;5031697;28;20186;-60
2022/10/08 08:03:42;;;;;;;0.00;0.00;;;17.60;99.90;;;;;;5031414;28;20594;-60
2022/10/08 08:06:13;;;;;;;0.00;0.00;;;17.80;99.90;;;;;;5031365;28;20609;-60
2022/10/08 08:08:40;;;;;;;0.00;0.00;;;17.80;99.90;;;;;;5031446;28;20190;-60
2022/10/08 08:11:08;;;;;;;0.00;0.00;;;18.00;99.90;;;;;;5031242;28;20616;-60
2022/10/08 08:13:36;;;;;;;0.47;0.30;;;18.20;99.90;;;;;;5030969;28;20178;-60
2022/10/08 08:16:13;;;;;;;0.00;0.00;;;18.50;99.90;;;;;;5031179;28;20194;-61
2022/10/08 08:18:41;;;;;;;0.00;0.00;;;18.70;99.90;;;;;;5017832;28;20186;-61
2022/10/08 08:21:10;;;;;;;0.00;0.00;;;18.80;99.90;;;;;;5022735;28;20174;-60
2022/10/08 08:23:38;;;;;;;0.00;0.00;;;19.00;99.90;;;;;;5030886;28;20182;-60
2022/10/08 08:26:34;;;;;;;0.05;0.05;;;19.40;99.90;;;;;;5031575;28;20189;-61
2022/10/08 08:29:02;;;;;;;0.30;0.10;;;19.70;99.90;;;;;;5030131;28;20661;-61
2022/10/08 08:31:34;;;;;;;0.03;0.03;;;19.90;99.90;;;;;;5031608;28;20538;-60
2022/10/08 08:34:06;;;;;;;0.00;0.00;;;19.60;98.90;;;;;;5031299;28;20182;-60
2022/10/08 08:36:37;;;;;;;0.00;0.00;;;19.00;99.30;;;;;;5031564;28;20237;-60
2022/10/08 08:39:04;;;;;;;0.00;0.00;;;18.60;99.90;;;;;;5031086;28;20178;-61
2022/10/08 08:41:52;;;;;;;0.05;0.05;;;18.30;99.90;;;;;;5030427;28;20191;-60
2022/10/08 08:44:24;;;;;;;0.00;0.00;;;18.00;99.90;;;;;;5030735;28;20208;-61
2022/10/08 08:46:58;;;;;;;0.10;0.10;;;17.90;99.90;;;;;;5030167;28;20222;-60
2022/10/08 08:49:29;;;;;;;0.00;0.00;;;17.90;99.90;;;;;;5030980;28;20188;-60
2022/10/08 08:51:56;;;;;;;0.00;0.00;;;18.00;99.90;;;;;;5030878;28;20186;-61
2022/10/08 08:54:23;;;;;;;0.20;0.00;;;18.30;99.90;;;;;;5026766;28;20193;-60
2022/10/08 08:56:50;;;;;;;0.10;0.10;;;18.40;99.20;;;;;;5034718;28;20294;-60
2022/10/08 08:59:30;;;;;;;0.00;0.00;;;18.40;98.70;;;;;;5035012;28;20649;-60
2022/10/08 09:02:00;;;;;;;0.00;0.00;;;18.30;98.80;;;;;;5035130;28;20225;-60
2022/10/08 09:04:41;;;;;;;0.00;0.00;;;18.10;98.90;;;;;;5034654;28;20225;-60
2022/10/08 09:07:13;;;;;;;0.00;0.00;;;17.90;98.90;;;;;;5034795;28;20245;-60
2022/10/08 09:09:46;;;;;;;0.10;0.10;;;17.90;99.20;;;;;;5035000;28;20174;-61
2022/10/08 09:12:26;;;;;;;0.00;0.00;;;18.00;99.70;;;;;;5034989;28;20661;-60
2022/10/08 09:14:58;;;;;;;0.00;0.00;;;18.10;99.50;;;;;;5034649;28;20201;-60
2022/10/08 09:17:37;;;;;;;0.00;0.00;;;18.00;99.90;;;;;;5025419;28;20557;-60
2022/10/08 09:20:04;;;;;;;0.00;0.00;;;17.90;99.90;;;;;;5034410;28;20224;-60
2022/10/08 09:22:38;;;;;;;0.00;0.00;;;17.80;99.90;;;;;;5034513;28;20178;-60
2022/10/08 09:25:16;;;;;;;0.00;0.00;;;17.80;99.90;;;;;;5033578;28;20181;-60
2022/10/08 09:27:55;;;;;;;0.00;0.00;;;17.70;99.90;;;;;;5033232;28;20616;-60
2022/10/08 09:30:23;;;;;;;0.00;0.00;;;17.70;99.90;;;;;;5029384;28;20591;-60
2022/10/08 09:32:54;;;;;;;0.00;0.00;;;17.90;99.90;;;;;;5034346;28;20182;-60
2022/10/08 09:35:20;;;;;;;0.00;0.00;;;18.10;99.90;;;;;;5034125;28;20201;-60
2022/10/08 09:37:47;;;;;;;0.00;0.00;;;18.00;99.20;;;;;;5034192;28;20170;-60
2022/10/08 09:40:23;;;;;;;0.00;0.00;;;17.80;99.00;;;;;;5034058;28;20174;-60
2022/10/08 09:43:18;;;;;;;0.00;0.00;;;17.70;99.00;;;;;;5033678;28;20177;-60
2022/10/08 09:45:48;;;;;;;0.10;0.10;;;17.70;98.90;;;;;;5029029;28;20190;-60
2022/10/08 09:48:29;;;;;;;0.00;0.00;;;17.70;98.70;;;;;;5033692;28;20301;-60
2022/10/08 09:51:11;;;;;;;0.10;0.10;;;18.00;98.80;;;;;;5030628;28;20517;-60
2022/10/08 09:53:44;;;;;;;0.43;0.10;;;18.20;97.80;;;;;;5033648;28;20229;-60
2022/10/08 09:56:11;;;;;;;0.35;0.10;;;18.40;97.60;;;;;;5033093;28;20170;-60
2022/10/08 09:58:52;;;;;;;0.00;0.00;;;18.50;97.10;;;;;;5032521;28;20645;-60
2022/10/08 10:01:18;;;;;;;0.10;0.05;;;18.70;96.40;;;;;;5032974;28;20304;-60
2022/10/08 10:03:53;;;;;;;0.03;0.03;;;18.80;96.80;;;;;;5033360;28;20664;-60
2022/10/08 10:06:29;;;;;;;0.00;0.00;;;19.00;97.30;;;;;;5029682;28;20711;-57
2022/10/08 10:09:10;;;;;;;0.00;0.00;;;19.30;95.90;;;;;;5033038;28;20276;-61
2022/10/08 10:11:40;;;;;;;0.10;0.10;;;19.40;95.20;;;;;;5033832;28;20179;-61
2022/10/08 10:14:43;;;;;;;0.00;0.00;;;19.50;95.80;;;;;;5033523;28;20192;-60
2022/10/08 10:17:39;;;;;;;0.00;0.00;;;19.70;95.30;;;;;;5033773;28;20189;-60
2022/10/08 10:20:26;;;;;;;0.10;0.10;;;19.70;94.10;;;;;;5033045;28;20218;-59
2022/10/08 10:23:10;;;;;;;0.00;0.00;;;19.60;94.10;;;;;;5033480;28;20185;-60
2022/10/08 10:25:47;;;;;;;0.52;0.38;;;20.00;97.60;;;;;;5033829;28;20549;-60
2022/10/08 10:28:16;;;;;;;0.68;0.52;;;20.20;94.80;;;;;;5033080;28;20217;-60
2022/10/08 10:30:50;;;;;;;0.20;0.20;;;20.60;97.50;;;;;;5030517;28;20232;-59
2022/10/08 10:33:21;;;;;;;0.00;0.00;;;21.10;94.10;;;;;;5033681;28;20178;-59
2022/10/08 10:35:59;;;;;;;0.00;0.00;;;21.20;91.80;;;;;;5033358;28;20197;-59
2022/10/08 10:38:27;;;;;;;0.00;0.00;;;21.40;89.80;;;;;;5033558;28;20664;-59
2022/10/08 10:41:35;;;;;;;0.00;0.00;;;21.20;88.90;;;;;;5033286;28;20183;-59
2022/10/08 10:44:09;;;;;;;0.00;0.00;;;20.90;86.90;;;;;;5032685;28;20584;-59
2022/10/08 10:46:48;;;;;;;0.00;0.00;;;20.80;88.20;;;;;;5033238;28;20281;-59
2022/10/08 10:49:17;;;;;;;0.52;0.52;;;20.80;85.80;;;;;;5033046;28;20185;-59
2022/10/08 10:51:58;;;;;;;0.20;0.20;;;20.80;86.30;;;;;;5033159;28;20287;-59
2022/10/08 10:54:45;;;;;;;0.00;0.00;;;20.80;85.40;;;;;;5033048;28;20205;-59
2022/10/08 10:57:36;;;;;;;0.00;0.00;;;20.70;86.00;;;;;;5033155;28;20251;-59
2022/10/08 11:00:08;;;;;;;0.00;0.00;;;20.70;87.20;;;;;;5033273;28;20204;-60
2022/10/08 11:02:42;;;;;;;0.00;0.00;;;20.80;86.30;;;;;;5032913;28;20183;-60
2022/10/08 11:05:26;;;;;;;0.15;0.15;;;21.00;87.20;;;;;;5032415;28;20316;-59
2022/10/08 11:08:03;;;;;;;0.00;0.00;;;21.20;85.00;;;;;;5047283;28;20225;-61
2022/10/08 11:10:38;;;;;;;0.00;0.00;;;21.30;84.50;;;;;;5032270;28;20696;-60
2022/10/08 11:13:09;;;;;;;0.00;0.00;;;21.40;85.10;;;;;;5032316;28;20181;-60
2022/10/08 11:15:38;;;;;;;0.00;0.00;;;21.30;84.90;;;;;;5032325;28;20170;-60
2022/10/08 11:18:19;;;;;;;0.00;0.00;;;21.20;84.00;;;;;;5032094;28;20562;-59
2022/10/08 11:21:16;;;;;;;0.00;0.00;;;21.30;85.70;;;;;;5032624;28;20189;-59
2022/10/08 11:24:04;;;;;;;0.00;0.00;;;21.40;84.10;;;;;;5032824;28;20205;-59
2022/10/08 11:26:54;;;;;;;0.32;0.32;;;21.70;83.10;;;;;;5032179;28;20676;-59
2022/10/08 11:29:31;;;;;;;0.00;0.00;;;21.50;81.40;;;;;;5032127;28;20190;-59
2022/10/08 11:31:58;;;;;;;0.00;0.00;;;21.30;82.10;;;;;;5032296;28;20660;-60
2022/10/08 11:34:31;;;;;;;0.00;0.00;;;21.20;82.60;;;;;;5032217;28;20182;-60
2022/10/08 11:37:31;;;;;;;0.10;0.10;;;20.90;83.60;;;;;;5032587;28;20630;-60
2022/10/08 11:40:18;;;;;;;0.00;0.00;;;21.10;83.30;;;;;;5027986;28;20548;-60
2022/10/08 11:42:52;;;;;;;0.00;0.00;;;21.10;81.50;;;;;;5032205;28;20174;-59
2022/10/08 11:45:23;;;;;;;0.05;0.05;;;20.80;81.30;;;;;;5032359;28;20180;-59
2022/10/08 11:47:51;;;;;;;0.00;0.00;;;20.30;83.20;;;;;;5031811;28;20214;-60
2022/10/08 11:50:28;;;;;;;0.00;0.00;;;20.20;85.60;;;;;;5032102;28;20783;-59
2022/10/08 11:53:08;;;;;;;0.00;0.00;;;19.90;85.20;;;;;;5031833;28;20214;-59
2022/10/08 11:55:35;;;;;;;0.00;0.00;;;19.80;85.40;;;;;;5032418;28;20178;-59
2022/10/08 11:58:05;;;;;;;0.00;0.00;;;19.80;86.10;;;;;;5031978;28;20201;-59
2022/10/08 12:00:33;;;;;;;0.10;0.10;;;19.80;85.30;;;;;;5032140;28;20202;-59
2022/10/08 12:03:00;;;;;;;0.00;0.00;;;19.90;86.30;;;;;;5031748;28;20182;-59
2022/10/08 12:05:31;;;;;;;0.20;0.17;;;20.10;85.50;;;;;;5031752;28;20229;-60
2022/10/08 12:08:01;;;;;;;0.00;0.00;;;20.10;84.40;;;;;;5031688;28;20264;-60
2022/10/08 12:10:37;;;;;;;0.00;0.00;;;20.20;84.40;;;;;;5031811;28;20182;-61
2022/10/08 12:13:12;;;;;;;0.00;0.00;;;20.10;83.00;;;;;;5031559;28;20683;-58
2022/10/08 12:15:42;;;;;;;0.00;0.00;;;20.00;83.70;;;;;;5031999;28;20185;-61
2022/10/08 12:18:12;;;;;;;0.28;0.20;;;19.90;85.30;;;;;;5031356;28;20538;-59
2022/10/08 12:20:40;;;;;;;0.00;0.00;;;19.80;85.70;;;;;;5031902;28;20198;-59
2022/10/08 12:23:20;;;;;;;0.00;0.00;;;19.70;85.50;;;;;;5031423;28;20182;-60
2022/10/08 12:25:47;;;;;;;0.00;0.00;;;19.50;85.70;;;;;;5031744;28;20641;-60
2022/10/08 12:28:19;;;;;;;0.00;0.00;;;19.40;85.80;;;;;;5031248;28;20272;-60
2022/10/08 12:30:56;;;;;;;0.15;0.15;;;19.40;85.70;;;;;;5031256;28;20265;-60
2022/10/08 12:33:23;;;;;;;0.10;0.10;;;19.20;85.80;;;;;;5031499;28;20649;-60
2022/10/08 12:36:06;;;;;;;0.00;0.00;;;19.00;86.00;;;;;;5031721;28;20225;-60
2022/10/08 12:39:00;;;;;;;0.00;0.00;;;18.90;86.80;;;;;;5031203;28;20174;-60
2022/10/08 12:41:47;;;;;;;0.00;0.00;;;18.80;87.20;;;;;;5028207;28;20208;-61
2022/10/08 12:44:26;;;;;;;0.00;0.00;;;18.70;88.70;;;;;;5011900;28;20656;-60
2022/10/08 12:46:58;;;;;;;0.00;0.00;;;18.70;88.10;;;;;;5025072;28;20236;-60
2022/10/08 12:49:38;;;;;;;0.00;0.00;;;18.70;89.10;;;;;;5031011;28;20657;-60
2022/10/08 12:52:13;;;;;;;0.00;0.00;;;18.70;89.30;;;;;;5020926;28;20535;-60
2022/10/08 12:54:51;;;;;;;0.00;0.00;;;18.90;89.60;;;;;;5031493;28;20201;-60
2022/10/08 12:57:25;;;;;;;0.00;0.00;;;18.80;88.70;;;;;;5044616;28;20215;-60
2022/10/08 12:59:51;;;;;;;0.00;0.00;;;18.90;88.80;;;;;;5051375;28;20168;-60
2022/10/08 13:02:35;;;;;;;0.05;0.05;;;18.90;88.40;;;;;;5051307;28;20177;-60
2022/10/08 13:05:02;;;;;;;0.00;0.00;;;19.00;89.40;;;;;;5051129;28;20728;-60
2022/10/08 13:07:31;;;;;;;0.00;0.00;;;19.10;88.90;;;;;;5048613;28;20692;-60
2022/10/08 13:09:59;;;;;;;0.00;0.00;;;19.20;88.70;;;;;;5031428;28;20261;-60
2022/10/08 13:12:25;;;;;;;0.00;0.00;;;19.00;87.80;;;;;;5031048;28;20198;-60
2022/10/08 13:15:04;;;;;;;0.00;0.00;;;18.80;87.60;;;;;;5031266;28;20178;-61